Alderton, Washington
Current Conditions -  °F | °C
As of 2:36 PM on Sunday 21 Dec 2014 (Local Time) from KTCM Reporting Station
Light Rain Light Rain  
Wind Chill: 12°   Ceiling: 5500
Heat Index: 12°   Visibility: 10mi
Dew Point:   Wind: 8mph
Humidity: 82%   Direction: 220°SW
Pressure: 30.02"   Gusts: NA
Location:  47.1905°N, 122.328°W
Report Text: KTCM 212236Z AUTO 22007KT 10SM -RA SCT037 BKN055 12/09 A3002 RMK AO2 RAE11RAB36
Loading
Personal Weather Stations






























Interactive Weather Map New forecast layout! Learn more

10-Day Weather Forecast

Advertisements
Track Severe Weather on mobile